Time;durP1;ratioP1;P1;durP2;ratioP2;P2;SDS_P1;SDS_P2;PMS_P1;PMS_P2;Temp;Humidity;BMP_temperature;BMP_pressure;BME280_temperature;BME280_humidity;BME280_pressure;Samples;Min_cycle;Max_cycle;Signal;HPM_P1;HPM_P2
2023/01/13 00:01:17;;;;;;;;;;;7.40;99.90;;;;;;5065864;28;20007;-80
2023/01/13 00:03:42;;;;;;;;;;;7.40;99.90;;;;;;5070950;28;19923;-79
2023/01/13 00:06:11;;;;;;;;;;;7.30;99.90;;;;;;5068650;28;19908;-80
2023/01/13 00:08:36;;;;;;;;;;;7.30;99.90;;;;;;5069691;28;19912;-79
2023/01/13 00:11:02;;;;;;;;;;;7.30;99.90;;;;;;5070020;28;19962;-79
2023/01/13 00:13:28;;;;;;;;;;;7.20;99.90;;;;;;5070593;28;19908;-80
2023/01/13 00:15:57;;;;;;;;;;;7.30;99.90;;;;;;5071164;28;20002;-80
2023/01/13 00:18:22;;;;;;;;;;;7.30;99.90;;;;;;5071106;28;19963;-81
2023/01/13 00:20:56;;;;;;;;;;;7.30;99.90;;;;;;5071394;28;20317;-81
2023/01/13 00:23:23;;;;;;;;;;;7.30;99.90;;;;;;5069574;28;20316;-80
2023/01/13 00:25:49;;;;;;;;;;;7.30;99.90;;;;;;5069993;28;20308;-81
2023/01/13 00:28:14;;;;;;;;;;;7.30;99.90;;;;;;5069232;28;19961;-82
2023/01/13 00:30:40;;;;;;;;;;;7.30;99.90;;;;;;5071428;28;19916;-80
2023/01/13 00:33:05;;;;;;;;;;;7.30;99.90;;;;;;5070337;28;19912;-81
2023/01/13 00:35:31;;;;;;;;;;;7.20;99.90;;;;;;5067960;28;19954;-81
2023/01/13 00:37:56;;;;;;;;;;;7.20;99.90;;;;;;5050740;28;19916;-81
2023/01/13 00:40:22;;;;;;;;;;;7.20;99.90;;;;;;5053924;28;20346;-79
2023/01/13 00:45:31;;;;;;;;;;;7.20;99.90;;;;;;5070928;28;19916;-80
2023/01/13 00:47:57;;;;;;;;;;;7.20;99.90;;;;;;5071145;28;19908;-79
2023/01/13 00:50:23;;;;;;;;;;;7.20;99.90;;;;;;5069039;28;20007;-80
2023/01/13 00:52:48;;;;;;;;;;;7.10;99.90;;;;;;5071480;28;19921;-80
2023/01/13 00:55:14;;;;;;;;;;;7.10;99.90;;;;;;5071035;28;20070;-80
2023/01/13 00:57:39;;;;;;;;;;;7.10;99.90;;;;;;5073652;28;19916;-79
2023/01/13 01:00:05;;;;;;;;;;;7.00;99.90;;;;;;5074290;28;19909;-79
2023/01/13 01:02:31;;;;;;;;;;;7.10;99.90;;;;;;5073374;28;19924;-79
2023/01/13 01:04:58;;;;;;;;;;;7.00;99.90;;;;;;5074842;28;19909;-79
2023/01/13 01:07:24;;;;;;;;;;;7.00;99.90;;;;;;5073765;28;19918;-79
2023/01/13 01:09:49;;;;;;;;;;;7.00;99.90;;;;;;5073074;28;19914;-79
2023/01/13 01:12:15;;;;;;;;;;;7.00;99.90;;;;;;5066071;28;19913;-79
2023/01/13 01:14:40;;;;;;;;;;;7.00;99.90;;;;;;5056317;28;20038;-79
2023/01/13 01:17:06;;;;;;;;;;;7.00;99.90;;;;;;5072342;28;19908;-79
2023/01/13 01:19:32;;;;;;;;;;;7.00;99.90;;;;;;5074322;28;20008;-80
2023/01/13 01:21:57;;;;;;;;;;;7.00;99.90;;;;;;5072951;28;20364;-79
2023/01/13 01:24:23;;;;;;;;;;;7.00;99.90;;;;;;5073643;28;19905;-78
2023/01/13 01:26:48;;;;;;;;;;;7.00;99.90;;;;;;5074033;28;19948;-78
2023/01/13 01:29:14;;;;;;;;;;;7.00;99.90;;;;;;5073448;28;19913;-79
2023/01/13 01:31:40;;;;;;;;;;;7.00;99.90;;;;;;5073913;28;19977;-79
2023/01/13 01:34:05;;;;;;;;;;;7.10;99.90;;;;;;5073160;28;19920;-83
2023/01/13 01:36:33;;;;;;;;;;;7.10;99.90;;;;;;5073899;28;20241;-79
2023/01/13 01:38:59;;;;;;;;;;;7.10;99.90;;;;;;5071859;28;20041;-79
2023/01/13 01:41:25;;;;;;;;;;;7.10;99.90;;;;;;5073217;28;19959;-79
2023/01/13 01:44:01;;;;;;;;;;;7.10;99.90;;;;;;5073464;28;20043;-79
2023/01/13 01:46:29;;;;;;;;;;;7.10;99.90;;;;;;5072699;28;20452;-78
2023/01/13 01:48:59;;;;;;;;;;;7.10;99.90;;;;;;5060166;28;20022;-78
2023/01/13 01:51:25;;;;;;;;;;;7.20;99.90;;;;;;5052961;28;20393;-78
2023/01/13 01:53:52;;;;;;;;;;;7.20;99.90;;;;;;5053560;28;19944;-79
2023/01/13 01:56:18;;;;;;;;;;;7.20;99.90;;;;;;5052845;28;19916;-79
2023/01/13 01:58:46;;;;;;;;;;;7.20;99.90;;;;;;5053363;28;19914;-79
2023/01/13 02:01:12;;;;;;;;;;;7.20;99.90;;;;;;5052987;28;19940;-79
2023/01/13 02:03:40;;;;;;;;;;;7.20;99.90;;;;;;5053158;28;19939;-79
2023/01/13 02:06:06;;;;;;;;;;;7.20;99.90;;;;;;5052306;28;19985;-85
2023/01/13 02:08:32;;;;;;;;;;;7.20;99.90;;;;;;5053466;28;19909;-79
2023/01/13 02:10:57;;;;;;;;;;;7.20;99.90;;;;;;5053247;28;20012;-78
2023/01/13 02:13:23;;;;;;;;;;;7.20;99.90;;;;;;5052768;28;19915;-78
2023/01/13 02:15:49;;;;;;;;;;;7.30;99.90;;;;;;5053268;28;19909;-77
2023/01/13 02:18:26;;;;;;;;;;;7.30;99.90;;;;;;5052549;28;20327;-77
2023/01/13 02:21:08;;;;;;;;;;;7.30;99.90;;;;;;5053592;28;19920;-78
2023/01/13 02:26:52;;;;;;;;;;;7.30;99.90;;;;;;5072801;28;19916;-78
2023/01/13 02:32:38;;;;;;;;;;;7.20;99.90;;;;;;5072446;28;19984;-77
2023/01/13 02:35:15;;;;;;;;;;;7.20;99.90;;;;;;5072885;28;20003;-78
2023/01/13 02:37:42;;;;;;;;;;;7.20;99.90;;;;;;5073533;28;20307;-78
2023/01/13 02:40:13;;;;;;;;;;;7.20;99.90;;;;;;5072843;28;20004;-83
2023/01/13 02:45:29;;;;;;;;;;;7.20;99.90;;;;;;5072224;28;20277;-78
2023/01/13 02:47:56;;;;;;;;;;;7.20;99.90;;;;;;5072797;28;19913;-78
2023/01/13 02:50:24;;;;;;;;;;;7.20;99.90;;;;;;5071939;28;19909;-79
2023/01/13 02:52:53;;;;;;;;;;;7.20;99.90;;;;;;5072951;28;19920;-79
2023/01/13 02:55:25;;;;;;;;;;;7.20;99.90;;;;;;5072256;28;19980;-78
2023/01/13 02:57:51;;;;;;;;;;;7.20;99.90;;;;;;5072562;28;20261;-78
2023/01/13 03:00:18;;;;;;;;;;;7.20;99.90;;;;;;5063994;28;19912;-79
2023/01/13 03:02:44;;;;;;;;;;;7.20;99.90;;;;;;5052561;28;20314;-78
2023/01/13 03:05:13;;;;;;;;;;;7.10;99.90;;;;;;5052918;28;19916;-83
2023/01/13 03:07:38;;;;;;;;;;;7.20;99.90;;;;;;5052465;28;20380;-78
2023/01/13 03:10:10;;;;;;;;;;;7.10;99.90;;;;;;5052306;28;19913;-78
2023/01/13 03:12:55;;;;;;;;;;;7.10;99.90;;;;;;5052047;28;19931;-78
2023/01/13 03:15:35;;;;;;;;;;;7.20;99.90;;;;;;5051956;28;19909;-78
2023/01/13 03:18:10;;;;;;;;;;;7.20;99.90;;;;;;5052304;28;20272;-78
2023/01/13 03:20:37;;;;;;;;;;;7.20;99.90;;;;;;5052054;28;19909;-77
2023/01/13 03:23:16;;;;;;;;;;;7.20;99.90;;;;;;5052007;28;19916;-78
2023/01/13 03:25:48;;;;;;;;;;;7.30;99.90;;;;;;5052264;28;19909;-78
2023/01/13 03:28:18;;;;;;;;;;;7.30;99.90;;;;;;5051262;28;20247;-79
2023/01/13 03:30:48;;;;;;;;;;;7.30;99.90;;;;;;5051677;28;20370;-79
2023/01/13 03:33:23;;;;;;;;;;;7.30;99.90;;;;;;5051427;28;19917;-79
2023/01/13 03:35:50;;;;;;;;;;;7.40;99.90;;;;;;5055140;28;19978;-78
2023/01/13 03:38:20;;;;;;;;;;;7.40;99.90;;;;;;5071082;28;19955;-77
2023/01/13 03:40:50;;;;;;;;;;;7.40;99.90;;;;;;5071634;28;19931;-77
2023/01/13 03:46:09;;;;;;;;;;;7.40;99.90;;;;;;5071823;28;19916;-78
2023/01/13 03:48:37;;;;;;;;;;;7.50;99.90;;;;;;5070638;28;19913;-78
2023/01/13 03:51:06;;;;;;;;;;;7.40;99.90;;;;;;5071846;28;20354;-78
2023/01/13 03:53:34;;;;;;;;;;;7.40;99.90;;;;;;5070777;28;20486;-78
2023/01/13 03:56:04;;;;;;;;;;;7.40;99.90;;;;;;5070371;28;20259;-78
2023/01/13 03:58:34;;;;;;;;;;;7.40;99.90;;;;;;5070798;28;19995;-78
2023/01/13 04:01:03;;;;;;;;;;;7.40;99.90;;;;;;5071192;28;19915;-78
2023/01/13 04:03:35;;;;;;;;;;;7.40;99.90;;;;;;5070722;28;19924;-78
2023/01/13 04:06:13;;;;;;;;;;;7.40;99.90;;;;;;5071746;28;19909;-77
2023/01/13 04:08:43;;;;;;;;;;;7.30;99.90;;;;;;5071270;28;19943;-77
2023/01/13 04:11:13;;;;;;;;;;;7.30;99.90;;;;;;5071041;28;19908;-77
2023/01/13 04:13:40;;;;;;;;;;;7.30;99.90;;;;;;5069922;28;19913;-78
2023/01/13 04:16:06;;;;;;;;;;;7.30;99.90;;;;;;5070817;28;20369;-77
2023/01/13 04:18:35;;;;;;;;;;;7.30;99.90;;;;;;5070612;28;19909;-76
2023/01/13 04:21:01;;;;;;;;;;;7.30;99.90;;;;;;5071022;28;19909;-76
2023/01/13 04:23:27;;;;;;;;;;;7.30;99.90;;;;;;5070026;28;20284;-77
2023/01/13 04:25:53;;;;;;;;;;;7.30;99.90;;;;;;5071330;28;19915;-76
2023/01/13 04:28:19;;;;;;;;;;;7.20;99.90;;;;;;5070571;28;19931;-78
2023/01/13 04:30:44;;;;;;;;;;;7.20;99.90;;;;;;5077203;28;19916;-77
2023/01/13 04:33:11;;;;;;;;;;;7.20;99.90;;;;;;5077614;28;19920;-77
2023/01/13 04:35:36;;;;;;;;;;;7.10;99.90;;;;;;5077006;28;20446;-77
2023/01/13 04:38:03;;;;;;;;;;;7.10;99.90;;;;;;5077701;28;19923;-77
2023/01/13 04:40:29;;;;;;;;;;;7.10;99.90;;;;;;5076997;28;19908;-77
2023/01/13 04:42:54;;;;;;;;;;;7.10;99.90;;;;;;5077707;28;19928;-77
2023/01/13 04:45:20;;;;;;;;;;;7.00;99.90;;;;;;5077036;28;20003;-78
2023/01/13 04:47:46;;;;;;;;;;;7.00;99.90;;;;;;5072071;28;19909;-78
2023/01/13 04:50:11;;;;;;;;;;;6.90;99.90;;;;;;5057482;28;19913;-79
2023/01/13 04:52:38;;;;;;;;;;;6.90;99.90;;;;;;5056920;28;19924;-77
2023/01/13 04:55:03;;;;;;;;;;;6.90;99.90;;;;;;5057354;28;19981;-78
2023/01/13 04:57:29;;;;;;;;;;;6.90;99.90;;;;;;5055426;28;19912;-78
2023/01/13 04:59:54;;;;;;;;;;;7.00;99.90;;;;;;5056691;28;19909;-77
2023/01/13 05:02:20;;;;;;;;;;;7.00;99.90;;;;;;5054945;28;20302;-80
2023/01/13 05:04:46;;;;;;;;;;;7.00;99.90;;;;;;5057156;28;19909;-77
2023/01/13 05:07:13;;;;;;;;;;;7.00;99.90;;;;;;5055689;28;19908;-77
2023/01/13 05:09:38;;;;;;;;;;;7.00;99.90;;;;;;5055451;28;20508;-77
2023/01/13 05:17:32;;;;;;;;;;;7.20;99.90;;;;;;5076407;28;20010;-77
2023/01/13 05:19:58;;;;;;;;;;;7.20;99.90;;;;;;5075852;28;20380;-76
2023/01/13 05:25:23;;;;;;;;;;;7.20;99.90;;;;;;5061742;28;20283;-77
2023/01/13 05:27:49;;;;;;;;;;;7.20;99.90;;;;;;5057316;28;19908;-77
2023/01/13 05:30:15;;;;;;;;;;;7.20;99.90;;;;;;5057035;28;19920;-77
2023/01/13 05:32:40;;;;;;;;;;;7.20;99.90;;;;;;5056421;28;19916;-77
2023/01/13 05:35:06;;;;;;;;;;;7.20;99.90;;;;;;5057135;28;19959;-77
2023/01/13 05:37:32;;;;;;;;;;;7.20;99.90;;;;;;5056482;28;20387;-78
2023/01/13 05:45:25;;;;;;;;;;;7.20;99.90;;;;;;5053452;28;20371;-78
2023/01/13 05:47:51;;;;;;;;;;;7.20;99.90;;;;;;5054005;28;20004;-77
2023/01/13 05:50:17;;;;;;;;;;;7.20;99.90;;;;;;5053998;28;19936;-77
2023/01/13 05:52:42;;;;;;;;;;;7.10;99.90;;;;;;5053469;28;19921;-76
2023/01/13 05:55:08;;;;;;;;;;;7.10;99.90;;;;;;5053514;28;19913;-77
2023/01/13 05:57:34;;;;;;;;;;;7.10;99.90;;;;;;5051925;28;20354;-78
2023/01/13 05:59:59;;;;;;;;;;;7.10;99.90;;;;;;5058456;28;19936;-78
2023/01/13 06:02:25;;;;;;;;;;;7.20;99.90;;;;;;5073147;28;19912;-78
2023/01/13 06:04:51;;;;;;;;;;;7.20;99.90;;;;;;5073640;28;19948;-77
2023/01/13 06:07:16;;;;;;;;;;;7.20;99.90;;;;;;5073480;28;19921;-77
2023/01/13 06:09:42;;;;;;;;;;;7.20;99.90;;;;;;5072898;28;19924;-78
2023/01/13 06:12:10;;;;;;;;;;;7.20;99.90;;;;;;5073524;28;19909;-77
2023/01/13 06:14:38;;;;;;;;;;;7.10;99.90;;;;;;5069311;28;19923;-77
2023/01/13 06:17:08;;;;;;;;;;;7.10;99.90;;;;;;5053399;28;19978;-78
2023/01/13 06:19:34;;;;;;;;;;;7.00;99.90;;;;;;5052993;28;19913;-78
2023/01/13 06:22:03;;;;;;;;;;;7.00;99.90;;;;;;5053462;28;19916;-77
2023/01/13 06:24:28;;;;;;;;;;;7.00;99.90;;;;;;5052464;28;20441;-77
2023/01/13 06:26:54;;;;;;;;;;;7.00;99.90;;;;;;5052221;28;19916;-77
2023/01/13 06:29:19;;;;;;;;;;;6.90;99.90;;;;;;5052855;28;20320;-78
2023/01/13 06:31:45;;;;;;;;;;;6.90;99.90;;;;;;5051058;28;19980;-78
2023/01/13 06:34:12;;;;;;;;;;;6.90;99.90;;;;;;5053037;28;19908;-77
2023/01/13 06:36:39;;;;;;;;;;;6.90;99.90;;;;;;5052509;28;19916;-77
2023/01/13 06:39:07;;;;;;;;;;;6.90;99.90;;;;;;5052033;28;20269;-77
2023/01/13 06:44:17;;;;;;;;;;;6.80;99.90;;;;;;5052908;28;19975;-78
2023/01/13 06:46:42;;;;;;;;;;;6.90;99.90;;;;;;5052330;28;20289;-79
2023/01/13 06:49:08;;;;;;;;;;;6.90;99.90;;;;;;5053419;28;19909;-78
2023/01/13 06:51:34;;;;;;;;;;;6.90;99.90;;;;;;5052608;28;19921;-78
2023/01/13 06:53:59;;;;;;;;;;;7.00;99.90;;;;;;5052630;28;20354;-78
2023/01/13 06:56:25;;;;;;;;;;;7.00;99.90;;;;;;5052333;28;19963;-82
2023/01/13 06:58:50;;;;;;;;;;;7.00;99.90;;;;;;5052511;28;19909;-77
2023/01/13 07:01:16;;;;;;;;;;;7.00;99.90;;;;;;5052610;28;19912;-78
2023/01/13 07:03:41;;;;;;;;;;;7.00;99.90;;;;;;5053735;28;20003;-78
2023/01/13 07:06:07;;;;;;;;;;;7.00;99.90;;;;;;5052745;28;19920;-78
2023/01/13 07:08:33;;;;;;;;;;;6.90;99.90;;;;;;5050545;28;19909;-78
2023/01/13 07:11:00;;;;;;;;;;;6.90;99.90;;;;;;5052623;28;19951;-77
2023/01/13 07:16:10;;;;;;;;;;;6.80;99.90;;;;;;5071908;28;19919;-79
2023/01/13 07:18:35;;;;;;;;;;;6.90;99.90;;;;;;5071338;28;19908;-78
2023/01/13 07:21:02;;;;;;;;;;;6.90;99.90;;;;;;5072181;28;20035;-78
2023/01/13 07:23:32;;;;;;;;;;;6.90;99.90;;;;;;5071273;28;20008;-81
2023/01/13 07:25:58;;;;;;;;;;;6.90;99.90;;;;;;5070374;28;19919;-77
2023/01/13 07:28:24;;;;;;;;;;;6.90;99.90;;;;;;5071843;28;19920;-76
2023/01/13 07:30:50;;;;;;;;;;;6.90;99.90;;;;;;5071112;28;19939;-77
2023/01/13 07:33:17;;;;;;;;;;;6.80;99.90;;;;;;5071693;28;19961;-77
2023/01/13 07:35:43;;;;;;;;;;;6.80;99.90;;;;;;5070892;28;19939;-77
2023/01/13 07:38:09;;;;;;;;;;;6.80;99.90;;;;;;5070995;28;19938;-77
2023/01/13 07:40:35;;;;;;;;;;;6.80;99.90;;;;;;5071067;28;19913;-77
2023/01/13 07:45:44;;;;;;;;;;;6.80;99.90;;;;;;5071094;28;19951;-77
2023/01/13 07:48:10;;;;;;;;;;;6.80;99.90;;;;;;5071110;28;19913;-77
2023/01/13 07:50:36;;;;;;;;;;;6.80;99.90;;;;;;5070821;28;19908;-78
2023/01/13 07:53:01;;;;;;;;;;;6.80;99.90;;;;;;5071492;28;19936;-77
2023/01/13 07:55:27;;;;;;;;;;;6.80;99.90;;;;;;5069981;28;20031;-77
2023/01/13 07:57:52;;;;;;;;;;;6.80;99.90;;;;;;5070500;28;20231;-77
2023/01/13 08:00:18;;;;;;;;;;;6.80;99.90;;;;;;5070043;28;19908;-77
2023/01/13 08:02:44;;;;;;;;;;;6.80;99.90;;;;;;5059686;28;19920;-78
2023/01/13 08:05:09;;;;;;;;;;;6.80;99.90;;;;;;5050691;28;19940;-77
2023/01/13 08:07:35;;;;;;;;;;;6.80;99.90;;;;;;5050710;28;19916;-77
2023/01/13 08:10:01;;;;;;;;;;;6.80;99.90;;;;;;5051740;28;19916;-77
2023/01/13 08:15:11;;;;;;;;;;;6.70;99.90;;;;;;5051047;28;20378;-76
2023/01/13 08:17:37;;;;;;;;;;;6.70;99.90;;;;;;5050709;28;19909;-76
2023/01/13 08:20:03;;;;;;;;;;;6.70;99.90;;;;;;5050742;28;19913;-78
2023/01/13 08:22:29;;;;;;;;;;;6.70;99.90;;;;;;5049410;28;19978;-77
2023/01/13 08:24:55;;;;;;;;;;;6.70;99.90;;;;;;5063645;28;19917;-77
2023/01/13 08:27:21;;;;;;;;;;;6.70;99.90;;;;;;5070576;28;19915;-77
2023/01/13 08:29:47;;;;;;;;;;;6.70;99.90;;;;;;5070461;28;20337;-77
2023/01/13 08:32:12;;;;;;;;;;;6.70;99.90;;;;;;5070765;28;19919;-77
2023/01/13 08:34:38;;;;;;;;;;;6.70;99.90;;;;;;5070414;28;19911;-77
2023/01/13 08:37:03;;;;;;;;;;;6.80;99.90;;;;;;5070955;28;19984;-76
2023/01/13 08:39:29;;;;;;;;;;;6.80;99.90;;;;;;5070805;28;19916;-77
2023/01/13 08:41:54;;;;;;;;;;;6.80;99.90;;;;;;5069736;28;19916;-76
2023/01/13 08:44:25;;;;;;;;;;;6.80;99.90;;;;;;5070614;28;19970;-76
2023/01/13 08:46:50;;;;;;;;;;;6.80;99.90;;;;;;5070092;28;20026;-76
2023/01/13 08:49:16;;;;;;;;;;;6.90;99.90;;;;;;5070896;28;20014;-77
2023/01/13 08:51:42;;;;;;;;;;;6.90;99.90;;;;;;5066852;28;20326;-77
2023/01/13 08:54:07;;;;;;;;;;;6.90;99.90;;;;;;5060046;28;19909;-78
2023/01/13 08:56:33;;;;;;;;;;;6.90;99.90;;;;;;5061334;28;20357;-82
2023/01/13 08:58:59;;;;;;;;;;;6.90;99.90;;;;;;5067907;28;20007;-77
2023/01/13 09:01:25;;;;;;;;;;;6.90;99.90;;;;;;5069854;28;19951;-78
2023/01/13 09:03:51;;;;;;;;;;;6.90;99.90;;;;;;5069573;28;19989;-78
2023/01/13 09:06:16;;;;;;;;;;;7.00;99.90;;;;;;5070832;28;20341;-77
2023/01/13 09:08:42;;;;;;;;;;;6.90;99.90;;;;;;5069992;28;20273;-78
2023/01/13 09:14:01;;;;;;;;;;;6.90;99.90;;;;;;5070616;28;19930;-78
2023/01/13 09:16:27;;;;;;;;;;;6.90;99.90;;;;;;5062873;28;19909;-77
2023/01/13 09:18:53;;;;;;;;;;;6.90;99.90;;;;;;5060946;28;19909;-79
2023/01/13 09:21:19;;;;;;;;;;;6.90;99.90;;;;;;5064275;28;19912;-78
2023/01/13 09:23:45;;;;;;;;;;;6.80;99.90;;;;;;5071854;28;19919;-78
2023/01/13 09:26:11;;;;;;;;;;;6.90;99.90;;;;;;5073915;28;19991;-78
2023/01/13 09:28:37;;;;;;;;;;;6.80;99.90;;;;;;5072102;28;19909;-81
2023/01/13 09:31:03;;;;;;;;;;;6.80;99.90;;;;;;5073673;28;19931;-78
2023/01/13 09:36:12;;;;;;;;;;;6.80;99.90;;;;;;5073547;28;20420;-78
2023/01/13 09:38:37;;;;;;;;;;;6.80;99.90;;;;;;5073715;28;19999;-81
2023/01/13 09:43:52;;;;;;;;;;;6.80;99.90;;;;;;5074083;28;20370;-78
2023/01/13 09:43:52;;;;;;;;;;;6.80;99.90;;;;;;5073045;28;19955;-78
2023/01/13 09:46:56;;;;;;;;;;;6.90;99.90;;;;;;5073774;28;19957;-78
2023/01/13 09:49:30;;;;;;;;;;;6.90;99.90;;;;;;5011547;28;19996;-78
2023/01/13 09:52:04;;;;;;;;;;;7.00;99.90;;;;;;5003049;28;19944;-78
2023/01/13 09:54:37;;;;;;;;;;;7.00;99.90;;;;;;4998566;28;19910;-78
2023/01/13 09:57:13;;;;;;;;;;;7.10;99.90;;;;;;5000549;28;19965;-78
2023/01/13 09:59:38;;;;;;;;;;;7.10;99.90;;;;;;5010963;28;19932;-82
2023/01/13 10:02:23;;;;;;;;;;;7.10;99.90;;;;;;5003862;28;19913;-78
2023/01/13 10:05:24;;;;;;;;;;;7.20;99.90;;;;;;4998297;28;20367;-78
2023/01/13 10:08:04;;;;;;;;;;;7.20;99.90;;;;;;4952359;28;20434;-77
2023/01/13 10:10:49;;;;;;;;;;;7.20;99.90;;;;;;4993604;28;19910;-79
2023/01/13 10:13:27;;;;;;;;;;;7.30;99.90;;;;;;4995199;28;20370;-79
2023/01/13 10:16:06;;;;;;;;;;;7.30;99.90;;;;;;4997218;28;20084;-78
2023/01/13 10:18:34;;;;;;;;;;;7.30;99.90;;;;;;4998163;28;19998;-80
2023/01/13 10:21:09;;;;;;;;;;;7.30;99.90;;;;;;5055429;28;19940;-80
2023/01/13 10:23:36;;;;;;;;;;;7.40;99.90;;;;;;5067156;28;20265;-80
2023/01/13 10:26:05;;;;;;;;;;;7.40;99.90;;;;;;5072788;28;19921;-80
2023/01/13 10:28:30;;;;;;;;;;;7.40;99.90;;;;;;5063831;28;19954;-80
2023/01/13 10:30:57;;;;;;;;;;;7.40;99.90;;;;;;5062483;28;20003;-80
2023/01/13 10:33:27;;;;;;;;;;;7.40;99.90;;;;;;5060215;28;19913;-79
2023/01/13 10:35:55;;;;;;;;;;;7.40;99.90;;;;;;5058216;28;19909;-79
2023/01/13 10:38:21;;;;;;;;;;;7.50;99.90;;;;;;5052435;28;19993;-79
2023/01/13 10:40:51;;;;;;;;;;;7.50;99.90;;;;;;5052059;28;20018;-80
2023/01/13 10:43:17;;;;;;;;;;;7.50;99.90;;;;;;5052903;28;19939;-79
2023/01/13 10:45:51;;;;;;;;;;;7.60;99.90;;;;;;5052045;28;20328;-84
2023/01/13 10:48:17;;;;;;;;;;;7.60;99.90;;;;;;5060172;28;19913;-80
2023/01/13 10:50:43;;;;;;;;;;;7.60;99.90;;;;;;5072322;28;19908;-84
2023/01/13 10:53:16;;;;;;;;;;;7.60;99.90;;;;;;5071018;28;20332;-79
2023/01/13 10:55:42;;;;;;;;;;;7.70;99.90;;;;;;5072462;28;19920;-83
2023/01/13 10:58:11;;;;;;;;;;;7.70;99.90;;;;;;5072439;28;19934;-79
2023/01/13 11:00:36;;;;;;;;;;;7.70;99.90;;;;;;5072611;28;19908;-79
2023/01/13 11:03:22;;;;;;;;;;;7.70;99.90;;;;;;5072070;28;20455;-79
2023/01/13 11:05:49;;;;;;;;;;;7.80;99.90;;;;;;5071266;28;19966;-80
2023/01/13 11:08:16;;;;;;;;;;;7.80;99.90;;;;;;5072463;28;20000;-80
2023/01/13 11:10:46;;;;;;;;;;;7.90;99.90;;;;;;5072621;28;19916;-83
2023/01/13 11:13:35;;;;;;;;;;;7.90;99.90;;;;;;5072932;28;20238;-79
2023/01/13 11:16:05;;;;;;;;;;;7.80;99.90;;;;;;5056781;28;19908;-79
2023/01/13 11:18:37;;;;;;;;;;;7.90;99.90;;;;;;5071934;28;19908;-79
2023/01/13 11:21:05;;;;;;;;;;;7.90;99.90;;;;;;5071539;28;20119;-79
2023/01/13 11:23:35;;;;;;;;;;;7.90;99.90;;;;;;5071570;28;19928;-79
2023/01/13 11:26:08;;;;;;;;;;;7.90;99.90;;;;;;5071320;28;19916;-79
2023/01/13 11:28:48;;;;;;;;;;;8.00;99.90;;;;;;5072405;28;19908;-80
2023/01/13 11:31:13;;;;;;;;;;;8.00;99.90;;;;;;5071621;28;19908;-79
2023/01/13 11:33:57;;;;;;;;;;;8.00;99.90;;;;;;5071323;28;20281;-81
2023/01/13 11:36:31;;;;;;;;;;;8.00;99.90;;;;;;5071428;28;19909;-79
2023/01/13 11:39:04;;;;;;;;;;;8.00;99.90;;;;;;5068511;28;19928;-80
2023/01/13 11:41:40;;;;;;;;;;;8.10;99.90;;;;;;5071519;28;19912;-79
2023/01/13 11:44:16;;;;;;;;;;;8.00;99.90;;;;;;5071299;28;20109;-79
2023/01/13 11:46:42;;;;;;;;;;;8.20;99.90;;;;;;5071467;28;19912;-79
2023/01/13 11:49:21;;;;;;;;;;;8.20;99.90;;;;;;5071041;28;19919;-79
2023/01/13 11:51:53;;;;;;;;;;;8.20;99.90;;;;;;5070974;28;19908;-85
2023/01/13 11:54:33;;;;;;;;;;;8.20;99.90;;;;;;5071954;28;19952;-80
2023/01/13 11:57:02;;;;;;;;;;;8.20;99.90;;;;;;5070580;28;19934;-79
2023/01/13 11:59:46;;;;;;;;;;;8.20;99.90;;;;;;5070583;28;20003;-80
2023/01/13 12:02:26;;;;;;;;;;;8.20;99.90;;;;;;5070947;28;20069;-79
2023/01/13 12:05:00;;;;;;;;;;;8.20;99.90;;;;;;5070501;28;20071;-80
2023/01/13 12:07:41;;;;;;;;;;;8.20;99.90;;;;;;5069787;28;20354;-79
2023/01/13 12:10:28;;;;;;;;;;;8.20;99.90;;;;;;5070936;28;20049;-79
2023/01/13 12:13:06;;;;;;;;;;;8.20;99.90;;;;;;5039569;28;20012;-81
2023/01/13 12:15:43;;;;;;;;;;;8.30;99.90;;;;;;5071403;28;19931;-80
2023/01/13 12:18:28;;;;;;;;;;;8.30;99.90;;;;;;5070873;28;20448;-81
2023/01/13 12:21:32;;;;;;;;;;;8.40;99.90;;;;;;5069840;28;19909;-80
2023/01/13 12:23:57;;;;;;;;;;;8.40;99.90;;;;;;4998961;28;19959;-80
2023/01/13 12:26:23;;;;;;;;;;;8.40;99.90;;;;;;4997255;28;19918;-79
2023/01/13 12:28:56;;;;;;;;;;;8.50;99.90;;;;;;5026660;28;19935;-85
2023/01/13 12:31:23;;;;;;;;;;;8.50;99.90;;;;;;5061149;28;19944;-81
2023/01/13 12:34:08;;;;;;;;;;;8.50;99.90;;;;;;5059988;28;20315;-84
2023/01/13 12:36:43;;;;;;;;;;;8.60;99.90;;;;;;5058704;28;19914;-80
2023/01/13 12:39:08;;;;;;;;;;;8.50;99.90;;;;;;5068094;28;20471;-80
2023/01/13 12:44:27;;;;;;;;;;;8.70;99.90;;;;;;5070779;28;19920;-80
2023/01/13 12:46:57;;;;;;;;;;;8.60;99.90;;;;;;5068319;28;19916;-78
2023/01/13 12:49:24;;;;;;;;;;;8.70;99.90;;;;;;5061400;28;19962;-82
2023/01/13 12:51:49;;;;;;;;;;;8.80;99.90;;;;;;5060565;28;20330;-84
2023/01/13 12:54:42;;;;;;;;;;;8.80;99.90;;;;;;5054898;28;19946;-79
2023/01/13 12:57:13;;;;;;;;;;;8.80;99.90;;;;;;5046127;28;19909;-78
2023/01/13 12:59:39;;;;;;;;;;;8.80;99.90;;;;;;5057605;28;20365;-80
2023/01/13 13:02:04;;;;;;;;;;;8.90;99.90;;;;;;5063346;28;20006;-80
2023/01/13 13:04:50;;;;;;;;;;;8.90;99.90;;;;;;5065955;28;20038;-82
2023/01/13 13:07:31;;;;;;;;;;;8.90;99.90;;;;;;5064056;28;20273;-80
2023/01/13 13:10:01;;;;;;;;;;;8.90;99.90;;;;;;5063228;28;19908;-80
2023/01/13 13:15:21;;;;;;;;;;;9.20;99.90;;;;;;5054611;28;19935;-81
2023/01/13 13:18:10;;;;;;;;;;;9.20;99.90;;;;;;5055437;28;19935;-80
2023/01/13 13:20:54;;;;;;;;;;;9.40;99.90;;;;;;5051400;28;19913;-79
2023/01/13 13:23:26;;;;;;;;;;;9.40;99.90;;;;;;5055147;28;19942;-79
2023/01/13 13:26:10;;;;;;;;;;;9.40;99.90;;;;;;5054637;28;19912;-85
2023/01/13 13:28:37;;;;;;;;;;;9.30;99.90;;;;;;5055011;28;19935;-80
2023/01/13 13:31:21;;;;;;;;;;;9.30;99.90;;;;;;5054480;28;19916;-80
2023/01/13 13:33:52;;;;;;;;;;;9.20;99.90;;;;;;5054777;28;19932;-80
2023/01/13 13:36:26;;;;;;;;;;;9.20;99.90;;;;;;5054612;28;19916;-80
2023/01/13 13:47:20;;;;;;;;;;;9.30;99.90;;;;;;5065580;28;19943;-80
2023/01/13 13:49:50;;;;;;;;;;;9.30;99.90;;;;;;5062328;28;20266;-80
2023/01/13 13:52:31;;;;;;;;;;;9.30;99.90;;;;;;5071345;28;19921;-80
2023/01/13 13:55:01;;;;;;;;;;;9.20;99.90;;;;;;5065937;28;20254;-80
2023/01/13 13:57:37;;;;;;;;;;;9.20;99.90;;;;;;5062155;28;19909;-80
2023/01/13 14:00:07;;;;;;;;;;;9.20;99.90;;;;;;5064812;28;19909;-80
2023/01/13 14:02:34;;;;;;;;;;;9.20;99.90;;;;;;5060438;28;20273;-80
2023/01/13 14:05:07;;;;;;;;;;;9.20;99.90;;;;;;5062072;28;19967;-79
2023/01/13 14:07:40;;;;;;;;;;;9.30;99.90;;;;;;5065274;28;19913;-79
2023/01/13 14:10:11;;;;;;;;;;;9.30;99.90;;;;;;5086833;28;19952;-79
2023/01/13 14:12:37;;;;;;;;;;;9.30;99.90;;;;;;5074264;28;19912;-80
2023/01/13 14:15:03;;;;;;;;;;;9.30;99.90;;;;;;5073458;28;19916;-79
2023/01/13 14:17:29;;;;;;;;;;;9.20;99.90;;;;;;5074100;28;19999;-79
2023/01/13 14:20:04;;;;;;;;;;;9.20;99.90;;;;;;5073822;28;19912;-83
2023/01/13 14:22:29;;;;;;;;;;;9.20;99.90;;;;;;5073765;28;19909;-79
2023/01/13 14:24:56;;;;;;;;;;;9.20;99.90;;;;;;5059117;28;19924;-82
2023/01/13 14:27:26;;;;;;;;;;;9.10;99.90;;;;;;5072901;28;19912;-77
2023/01/13 14:29:57;;;;;;;;;;;9.10;99.90;;;;;;5073501;28;20347;-77
2023/01/13 14:32:25;;;;;;;;;;;9.10;99.90;;;;;;5064665;28;20368;-76
2023/01/13 14:34:51;;;;;;;;;;;8.90;99.90;;;;;;5062102;28;20083;-78
2023/01/13 14:37:32;;;;;;;;;;;9.00;99.90;;;;;;5060762;28;19995;-77
2023/01/13 14:39:57;;;;;;;;;;;9.00;99.90;;;;;;5053286;28;19915;-82
2023/01/13 14:42:23;;;;;;;;;;;8.90;99.90;;;;;;5053491;28;19909;-76
2023/01/13 14:44:49;;;;;;;;;;;8.90;99.90;;;;;;5053345;28;20370;-77
2023/01/13 14:47:24;;;;;;;;;;;8.90;99.90;;;;;;5052662;28;19916;-77
2023/01/13 14:49:50;;;;;;;;;;;8.90;99.90;;;;;;5053412;28;19916;-77
2023/01/13 14:52:18;;;;;;;;;;;8.90;99.90;;;;;;5052448;28;20384;-77
2023/01/13 14:54:46;;;;;;;;;;;8.80;99.90;;;;;;5053254;28;19995;-78
2023/01/13 14:57:21;;;;;;;;;;;8.80;99.90;;;;;;5052789;28;19912;-77
2023/01/13 14:59:59;;;;;;;;;;;8.70;99.90;;;;;;5056545;28;19916;-77
2023/01/13 15:02:27;;;;;;;;;;;8.70;99.90;;;;;;5072910;28;19917;-77
2023/01/13 15:04:55;;;;;;;;;;;8.60;99.90;;;;;;5072774;28;19916;-77
2023/01/13 15:07:25;;;;;;;;;;;8.60;99.90;;;;;;5072253;28;19908;-76
2023/01/13 15:09:52;;;;;;;;;;;8.70;99.90;;;;;;5056164;28;19913;-77
2023/01/13 15:12:26;;;;;;;;;;;8.70;99.90;;;;;;5052699;28;19928;-76
2023/01/13 15:14:52;;;;;;;;;;;8.60;99.90;;;;;;5052198;28;19985;-77
2023/01/13 15:17:17;;;;;;;;;;;8.60;99.90;;;;;;5052212;28;20419;-77
2023/01/13 15:19:43;;;;;;;;;;;8.60;99.90;;;;;;5053008;28;20378;-77
2023/01/13 15:22:09;;;;;;;;;;;8.60;99.90;;;;;;5052207;28;19908;-77
2023/01/13 15:24:34;;;;;;;;;;;8.60;99.90;;;;;;5053070;28;19933;-77
2023/01/13 15:27:02;;;;;;;;;;;8.60;99.90;;;;;;5051873;28;19913;-82
2023/01/13 15:29:28;;;;;;;;;;;8.50;99.90;;;;;;5052227;28;20000;-76
2023/01/13 15:31:54;;;;;;;;;;;8.50;99.90;;;;;;5052743;28;19948;-77
2023/01/13 15:34:19;;;;;;;;;;;8.50;99.90;;;;;;5051598;28;19916;-77
2023/01/13 15:36:45;;;;;;;;;;;8.50;99.90;;;;;;5063763;28;19943;-77
2023/01/13 15:39:11;;;;;;;;;;;8.40;99.90;;;;;;5071981;28;19919;-77
2023/01/13 15:47:07;;;;;;;;;;;8.40;99.90;;;;;;5072046;28;20015;-77